Etusivu
METAR-TAF:

METAR-TAF

Lentoasemat :

Turku, Suomi

Turun lentoasema

Leveyspiiri: 60-31N, Pituuspiiri: 022-16E, korkeus merenpinnasta: 49 m

Tämänhetkinen sää

Tämä raportti tehtiin 23 minuuttia sitten, kello 06.20 UTC
Tuuli 8 kn pohjoisesta, vaihdellen luoteen ja pohjoisen/koillisen välillä
Lämpötila 10°C
Kosteus 76%
Ilmanpaine 1009 hPa
Näkyvyys 10 km tai enemmän

METAR: EFTU 240620Z AUTO 35008KT 320V030 9999 FEW002/// SCT023/// 10/06 Q1009

Aika: 09:43 (06:43 UTC)

Sääennuste

Tämä raportti tehtiin 1 tunti ja 7 minuuttia sitten, kello 05.36 UTC
Ennuste voimassa 24. päivästä klo 06 UTC - 25. päivään klo 06 UTC
Tuuli 8 kn pohjoisen/luoteesta
Näkyvyys 10 km tai enemmän
Hajonneita pilviä 2500 ft:n korkeudessa
Todennäköisyys 40%
24. päivästä klo 09 UTC - 24. päivään klo 14 UTC
Tuuli 15 kn pohjoisen/luoteesta puuskistuen 25 kn:hen

TAF: EFTU 240536Z 2406/2506 34008KT 9999 BKN025 PROB40 2409/2414 34015G25KT

Säähavainnot ja -ennusteet yli 4000 lentoasemalta (METAR- ja TAF-raportit).

Käytössä olevat sääasemat on merkitty karttaan keltaisilla ja punaisilla pisteillä.

Aseta hiiri pisteen päälle nähdäksesi sääaseman nimen.

Klikkaa sitten nähdäksesi säähavainnot ja -ennusteet.

Kartan vaihtaminen: klikkaa mustalla rastilla varustettuja vihreitä pisteitä, niin voit zoomata sisään; viivalla varustettua vihreää pistettä, niin voit zoomata ulos tai vihreitä nuolia, niin pääset viereisille kartoille.


METAR-TAF: